sensor_id;sensor_type;location;lat;lon;timestamp;P1;durP1;ratioP1;P2;durP2;ratioP2
3943;SDS011;1986;52.546;13.428;2023-12-22T00:02:22;12.80;;;12.50;;
3943;SDS011;1986;52.546;13.428;2023-12-22T00:04:50;12.70;;;12.50;;
3943;SDS011;1986;52.546;13.428;2023-12-22T00:07:17;12.90;;;12.60;;
3943;SDS011;1986;52.546;13.428;2023-12-22T00:09:45;13.27;;;12.97;;
3943;SDS011;1986;52.546;13.428;2023-12-22T00:12:13;13.20;;;12.90;;
3943;SDS011;1986;52.546;13.428;2023-12-22T00:14:40;13.30;;;13.00;;
3943;SDS011;1986;52.546;13.428;2023-12-22T00:17:09;13.00;;;12.70;;
3943;SDS011;1986;52.546;13.428;2023-12-22T00:19:36;13.00;;;12.70;;
3943;SDS011;1986;52.546;13.428;2023-12-22T00:22:03;13.00;;;12.70;;
3943;SDS011;1986;52.546;13.428;2023-12-22T00:24:30;13.17;;;12.87;;
3943;SDS011;1986;52.546;13.428;2023-12-22T00:26:57;13.20;;;12.90;;
3943;SDS011;1986;52.546;13.428;2023-12-22T00:29:26;13.10;;;12.80;;
3943;SDS011;1986;52.546;13.428;2023-12-22T00:31:53;13.40;;;13.10;;
3943;SDS011;1986;52.546;13.428;2023-12-22T00:34:22;13.50;;;13.20;;
3943;SDS011;1986;52.546;13.428;2023-12-22T00:36:49;13.60;;;13.30;;
3943;SDS011;1986;52.546;13.428;2023-12-22T00:39:16;14.00;;;13.60;;
3943;SDS011;1986;52.546;13.428;2023-12-22T00:41:43;14.10;;;13.70;;
3943;SDS011;1986;52.546;13.428;2023-12-22T00:44:10;14.30;;;13.90;;
3943;SDS011;1986;52.546;13.428;2023-12-22T00:46:37;14.10;;;13.70;;
3943;SDS011;1986;52.546;13.428;2023-12-22T00:49:04;14.30;;;13.90;;
3943;SDS011;1986;52.546;13.428;2023-12-22T00:51:32;14.33;;;13.93;;
3943;SDS011;1986;52.546;13.428;2023-12-22T00:53:59;14.30;;;13.90;;
3943;SDS011;1986;52.546;13.428;2023-12-22T00:56:26;14.10;;;13.70;;
3943;SDS011;1986;52.546;13.428;2023-12-22T00:58:53;14.10;;;13.70;;
3943;SDS011;1986;52.546;13.428;2023-12-22T01:01:20;14.20;;;13.80;;
3943;SDS011;1986;52.546;13.428;2023-12-22T01:03:47;14.07;;;13.67;;
3943;SDS011;1986;52.546;13.428;2023-12-22T01:06:14;13.80;;;13.50;;
3943;SDS011;1986;52.546;13.428;2023-12-22T01:08:42;13.80;;;13.50;;
3943;SDS011;1986;52.546;13.428;2023-12-22T01:11:09;14.10;;;13.70;;
3943;SDS011;1986;52.546;13.428;2023-12-22T01:13:36;14.40;;;14.00;;
3943;SDS011;1986;52.546;13.428;2023-12-22T01:16:03;14.00;;;13.70;;
3943;SDS011;1986;52.546;13.428;2023-12-22T01:18:32;14.40;;;14.00;;
3943;SDS011;1986;52.546;13.428;2023-12-22T01:20:59;13.50;;;13.20;;
3943;SDS011;1986;52.546;13.428;2023-12-22T01:23:26;13.70;;;13.40;;
3943;SDS011;1986;52.546;13.428;2023-12-22T01:25:54;13.30;;;13.00;;
3943;SDS011;1986;52.546;13.428;2023-12-22T01:28:21;13.20;;;12.90;;
3943;SDS011;1986;52.546;13.428;2023-12-22T01:30:49;13.20;;;12.90;;
3943;SDS011;1986;52.546;13.428;2023-12-22T01:33:16;13.10;;;12.80;;
3943;SDS011;1986;52.546;13.428;2023-12-22T01:35:43;13.20;;;12.90;;
3943;SDS011;1986;52.546;13.428;2023-12-22T01:38:10;12.90;;;12.60;;
3943;SDS011;1986;52.546;13.428;2023-12-22T01:40:37;12.90;;;12.60;;
3943;SDS011;1986;52.546;13.428;2023-12-22T01:43:07;12.70;;;12.50;;
3943;SDS011;1986;52.546;13.428;2023-12-22T01:45:34;12.93;;;12.63;;
3943;SDS011;1986;52.546;13.428;2023-12-22T01:48:01;12.83;;;12.53;;
3943;SDS011;1986;52.546;13.428;2023-12-22T01:50:28;12.90;;;12.60;;
3943;SDS011;1986;52.546;13.428;2023-12-22T01:52:55;12.90;;;12.60;;
3943;SDS011;1986;52.546;13.428;2023-12-22T01:55:23;12.97;;;12.67;;
3943;SDS011;1986;52.546;13.428;2023-12-22T01:57:50;13.00;;;12.70;;
3943;SDS011;1986;52.546;13.428;2023-12-22T02:00:18;12.70;;;12.50;;
3943;SDS011;1986;52.546;13.428;2023-12-22T02:02:46;12.30;;;12.10;;
3943;SDS011;1986;52.546;13.428;2023-12-22T02:05:13;12.90;;;12.60;;
3943;SDS011;1986;52.546;13.428;2023-12-22T02:07:41;13.00;;;12.70;;
3943;SDS011;1986;52.546;13.428;2023-12-22T02:10:09;12.70;;;12.50;;
3943;SDS011;1986;52.546;13.428;2023-12-22T02:12:36;12.53;;;12.33;;
3943;SDS011;1986;52.546;13.428;2023-12-22T02:15:03;12.60;;;12.40;;
3943;SDS011;1986;52.546;13.428;2023-12-22T02:17:36;12.50;;;12.30;;
3943;SDS011;1986;52.546;13.428;2023-12-22T02:20:10;12.30;;;12.10;;
3943;SDS011;1986;52.546;13.428;2023-12-22T02:22:39;12.20;;;12.00;;
3943;SDS011;1986;52.546;13.428;2023-12-22T02:25:06;12.20;;;12.00;;
3943;SDS011;1986;52.546;13.428;2023-12-22T02:27:34;12.30;;;12.10;;
3943;SDS011;1986;52.546;13.428;2023-12-22T02:30:07;12.30;;;12.10;;
3943;SDS011;1986;52.546;13.428;2023-12-22T02:32:40;12.57;;;12.37;;
3943;SDS011;1986;52.546;13.428;2023-12-22T02:35:09;12.40;;;12.20;;
3943;SDS011;1986;52.546;13.428;2023-12-22T02:37:39;12.40;;;12.20;;
3943;SDS011;1986;52.546;13.428;2023-12-22T02:40:07;12.10;;;11.90;;
3943;SDS011;1986;52.546;13.428;2023-12-22T02:42:35;12.10;;;11.90;;
3943;SDS011;1986;52.546;13.428;2023-12-22T02:45:04;11.90;;;11.70;;
3943;SDS011;1986;52.546;13.428;2023-12-22T02:47:32;12.17;;;11.97;;
3943;SDS011;1986;52.546;13.428;2023-12-22T02:49:59;12.00;;;11.80;;
3943;SDS011;1986;52.546;13.428;2023-12-22T02:52:26;11.93;;;11.73;;
3943;SDS011;1986;52.546;13.428;2023-12-22T02:54:54;12.03;;;11.83;;
3943;SDS011;1986;52.546;13.428;2023-12-22T02:57:21;12.00;;;11.80;;
3943;SDS011;1986;52.546;13.428;2023-12-22T02:59:48;11.90;;;11.70;;
3943;SDS011;1986;52.546;13.428;2023-12-22T03:02:15;12.00;;;11.80;;
3943;SDS011;1986;52.546;13.428;2023-12-22T03:04:42;11.90;;;11.70;;
3943;SDS011;1986;52.546;13.428;2023-12-22T03:07:11;12.00;;;11.80;;
3943;SDS011;1986;52.546;13.428;2023-12-22T03:09:38;12.00;;;11.80;;
3943;SDS011;1986;52.546;13.428;2023-12-22T03:12:07;12.07;;;11.87;;
3943;SDS011;1986;52.546;13.428;2023-12-22T03:14:34;12.20;;;12.00;;
3943;SDS011;1986;52.546;13.428;2023-12-22T03:17:02;12.27;;;12.07;;
3943;SDS011;1986;52.546;13.428;2023-12-22T03:19:30;12.00;;;11.80;;
3943;SDS011;1986;52.546;13.428;2023-12-22T03:21:58;12.03;;;11.83;;
3943;SDS011;1986;52.546;13.428;2023-12-22T03:24:25;11.90;;;11.70;;
3943;SDS011;1986;52.546;13.428;2023-12-22T03:26:53;12.27;;;12.07;;
3943;SDS011;1986;52.546;13.428;2023-12-22T03:29:22;12.10;;;11.90;;
3943;SDS011;1986;52.546;13.428;2023-12-22T03:31:49;11.77;;;11.57;;
3943;SDS011;1986;52.546;13.428;2023-12-22T03:34:16;11.90;;;11.70;;
3943;SDS011;1986;52.546;13.428;2023-12-22T03:36:43;11.80;;;11.60;;
3943;SDS011;1986;52.546;13.428;2023-12-22T03:39:13;11.80;;;11.60;;
3943;SDS011;1986;52.546;13.428;2023-12-22T03:41:40;11.70;;;11.50;;
3943;SDS011;1986;52.546;13.428;2023-12-22T03:44:07;11.70;;;11.50;;
3943;SDS011;1986;52.546;13.428;2023-12-22T03:46:35;11.10;;;11.00;;
3943;SDS011;1986;52.546;13.428;2023-12-22T03:49:02;11.10;;;11.00;;
3943;SDS011;1986;52.546;13.428;2023-12-22T03:51:29;11.40;;;11.30;;
3943;SDS011;1986;52.546;13.428;2023-12-22T03:53:56;11.40;;;11.30;;
3943;SDS011;1986;52.546;13.428;2023-12-22T03:56:23;11.03;;;10.93;;
3943;SDS011;1986;52.546;13.428;2023-12-22T03:58:50;11.30;;;11.20;;
3943;SDS011;1986;52.546;13.428;2023-12-22T04:01:17;11.27;;;11.17;;
3943;SDS011;1986;52.546;13.428;2023-12-22T04:03:45;11.43;;;11.33;;
3943;SDS011;1986;52.546;13.428;2023-12-22T04:06:12;11.20;;;11.10;;
3943;SDS011;1986;52.546;13.428;2023-12-22T04:08:40;11.30;;;11.20;;
3943;SDS011;1986;52.546;13.428;2023-12-22T04:11:06;11.60;;;11.40;;
3943;SDS011;1986;52.546;13.428;2023-12-22T04:13:36;11.67;;;11.47;;
3943;SDS011;1986;52.546;13.428;2023-12-22T04:16:03;11.67;;;11.47;;
3943;SDS011;1986;52.546;13.428;2023-12-22T04:18:30;11.17;;;11.07;;
3943;SDS011;1986;52.546;13.428;2023-12-22T04:20:59;10.93;;;10.83;;
3943;SDS011;1986;52.546;13.428;2023-12-22T04:23:25;10.80;;;10.70;;
3943;SDS011;1986;52.546;13.428;2023-12-22T04:25:52;10.20;;;10.10;;
3943;SDS011;1986;52.546;13.428;2023-12-22T04:28:19;10.33;;;10.23;;
3943;SDS011;1986;52.546;13.428;2023-12-22T04:30:46;10.00;;;9.90;;
3943;SDS011;1986;52.546;13.428;2023-12-22T04:35:42;9.30;;;9.20;;
3943;SDS011;1986;52.546;13.428;2023-12-22T04:38:11;9.20;;;9.10;;
3943;SDS011;1986;52.546;13.428;2023-12-22T04:40:38;9.40;;;9.30;;
3943;SDS011;1986;52.546;13.428;2023-12-22T04:43:05;8.80;;;8.70;;
3943;SDS011;1986;52.546;13.428;2023-12-22T04:45:32;9.30;;;9.20;;
3943;SDS011;1986;52.546;13.428;2023-12-22T04:47:59;9.30;;;9.20;;
3943;SDS011;1986;52.546;13.428;2023-12-22T04:50:25;9.20;;;9.10;;
3943;SDS011;1986;52.546;13.428;2023-12-22T04:52:52;9.47;;;9.37;;
3943;SDS011;1986;52.546;13.428;2023-12-22T04:55:21;9.30;;;9.20;;
3943;SDS011;1986;52.546;13.428;2023-12-22T04:57:48;9.00;;;8.90;;
3943;SDS011;1986;52.546;13.428;2023-12-22T05:00:15;10.00;;;9.90;;
3943;SDS011;1986;52.546;13.428;2023-12-22T05:02:42;9.20;;;9.10;;
3943;SDS011;1986;52.546;13.428;2023-12-22T05:05:09;8.80;;;8.70;;
3943;SDS011;1986;52.546;13.428;2023-12-22T05:07:36;11.10;;;11.00;;
3943;SDS011;1986;52.546;13.428;2023-12-22T05:10:05;15.60;;;15.30;;
3943;SDS011;1986;52.546;13.428;2023-12-22T05:12:35;14.30;;;14.10;;
3943;SDS011;1986;52.546;13.428;2023-12-22T05:15:02;12.60;;;12.50;;
3943;SDS011;1986;52.546;13.428;2023-12-22T05:17:29;9.40;;;9.30;;
3943;SDS011;1986;52.546;13.428;2023-12-22T05:19:57;9.17;;;9.07;;
3943;SDS011;1986;52.546;13.428;2023-12-22T05:22:26;6.70;;;6.70;;
3943;SDS011;1986;52.546;13.428;2023-12-22T05:24:55;4.80;;;4.80;;
3943;SDS011;1986;52.546;13.428;2023-12-22T05:27:23;4.43;;;4.43;;
3943;SDS011;1986;52.546;13.428;2023-12-22T05:29:52;4.07;;;4.07;;
3943;SDS011;1986;52.546;13.428;2023-12-22T05:32:19;3.70;;;3.70;;
3943;SDS011;1986;52.546;13.428;2023-12-22T05:34:46;3.47;;;3.47;;
3943;SDS011;1986;52.546;13.428;2023-12-22T05:37:13;3.97;;;3.97;;
3943;SDS011;1986;52.546;13.428;2023-12-22T05:39:40;3.60;;;3.60;;
3943;SDS011;1986;52.546;13.428;2023-12-22T05:42:08;3.80;;;3.80;;
3943;SDS011;1986;52.546;13.428;2023-12-22T05:44:35;4.20;;;4.20;;
3943;SDS011;1986;52.546;13.428;2023-12-22T05:47:05;5.00;;;5.00;;
3943;SDS011;1986;52.546;13.428;2023-12-22T05:49:34;5.10;;;5.10;;
3943;SDS011;1986;52.546;13.428;2023-12-22T05:52:01;5.20;;;5.20;;
3943;SDS011;1986;52.546;13.428;2023-12-22T05:54:28;5.67;;;5.67;;
3943;SDS011;1986;52.546;13.428;2023-12-22T05:56:55;6.00;;;6.00;;
3943;SDS011;1986;52.546;13.428;2023-12-22T05:59:22;6.20;;;6.20;;
3943;SDS011;1986;52.546;13.428;2023-12-22T06:01:52;6.30;;;6.30;;
3943;SDS011;1986;52.546;13.428;2023-12-22T06:04:21;6.70;;;6.70;;
3943;SDS011;1986;52.546;13.428;2023-12-22T06:06:48;6.57;;;6.57;;
3943;SDS011;1986;52.546;13.428;2023-12-22T06:09:15;7.10;;;7.10;;
3943;SDS011;1986;52.546;13.428;2023-12-22T06:11:43;7.10;;;7.10;;
3943;SDS011;1986;52.546;13.428;2023-12-22T06:14:10;7.47;;;7.47;;
3943;SDS011;1986;52.546;13.428;2023-12-22T06:16:37;7.80;;;7.80;;
3943;SDS011;1986;52.546;13.428;2023-12-22T06:19:05;8.50;;;8.40;;
3943;SDS011;1986;52.546;13.428;2023-12-22T06:21:33;8.90;;;8.80;;
3943;SDS011;1986;52.546;13.428;2023-12-22T06:24:04;9.33;;;9.23;;
3943;SDS011;1986;52.546;13.428;2023-12-22T06:26:31;9.20;;;9.10;;
3943;SDS011;1986;52.546;13.428;2023-12-22T06:28:58;9.40;;;9.30;;
3943;SDS011;1986;52.546;13.428;2023-12-22T06:31:25;9.40;;;9.30;;
3943;SDS011;1986;52.546;13.428;2023-12-22T06:33:52;9.50;;;9.40;;
3943;SDS011;1986;52.546;13.428;2023-12-22T06:36:19;10.00;;;9.90;;
3943;SDS011;1986;52.546;13.428;2023-12-22T06:38:50;10.03;;;9.93;;
3943;SDS011;1986;52.546;13.428;2023-12-22T06:41:19;10.30;;;10.20;;
3943;SDS011;1986;52.546;13.428;2023-12-22T06:43:47;10.30;;;10.20;;
3943;SDS011;1986;52.546;13.428;2023-12-22T06:46:14;10.10;;;10.00;;
3943;SDS011;1986;52.546;13.428;2023-12-22T06:48:42;9.90;;;9.80;;
3943;SDS011;1986;52.546;13.428;2023-12-22T06:51:16;8.87;;;8.77;;
3943;SDS011;1986;52.546;13.428;2023-12-22T06:53:44;6.10;;;6.10;;
3943;SDS011;1986;52.546;13.428;2023-12-22T06:56:16;5.20;;;5.20;;
3943;SDS011;1986;52.546;13.428;2023-12-22T06:58:44;5.90;;;5.90;;
3943;SDS011;1986;52.546;13.428;2023-12-22T07:01:12;10.73;;;10.63;;
3943;SDS011;1986;52.546;13.428;2023-12-22T07:03:43;12.20;;;12.10;;
3943;SDS011;1986;52.546;13.428;2023-12-22T07:06:10;16.90;;;16.50;;
3943;SDS011;1986;52.546;13.428;2023-12-22T07:08:37;22.90;;;22.00;;
3943;SDS011;1986;52.546;13.428;2023-12-22T07:11:04;22.43;;;21.53;;
3943;SDS011;1986;52.546;13.428;2023-12-22T07:13:33;24.07;;;22.87;;
3943;SDS011;1986;52.546;13.428;2023-12-22T07:16:00;24.60;;;23.30;;
3943;SDS011;1986;52.546;13.428;2023-12-22T07:18:28;23.90;;;22.60;;
3943;SDS011;1986;52.546;13.428;2023-12-22T07:20:55;23.93;;;22.70;;
3943;SDS011;1986;52.546;13.428;2023-12-22T07:23:22;23.80;;;22.50;;
3943;SDS011;1986;52.546;13.428;2023-12-22T07:25:50;26.97;;;25.37;;
3943;SDS011;1986;52.546;13.428;2023-12-22T07:28:19;27.60;;;26.00;;
3943;SDS011;1986;52.546;13.428;2023-12-22T07:30:47;28.10;;;26.60;;
3943;SDS011;1986;52.546;13.428;2023-12-22T07:33:14;27.00;;;25.60;;
3943;SDS011;1986;52.546;13.428;2023-12-22T07:35:41;26.60;;;25.30;;
3943;SDS011;1986;52.546;13.428;2023-12-22T07:38:08;25.83;;;24.63;;
3943;SDS011;1986;52.546;13.428;2023-12-22T07:40:35;25.07;;;23.97;;
3943;SDS011;1986;52.546;13.428;2023-12-22T07:43:02;24.90;;;23.90;;
3943;SDS011;1986;52.546;13.428;2023-12-22T07:45:31;23.80;;;22.90;;
3943;SDS011;1986;52.546;13.428;2023-12-22T07:47:59;22.77;;;21.97;;
3943;SDS011;1986;52.546;13.428;2023-12-22T07:50:27;23.00;;;22.20;;
3943;SDS011;1986;52.546;13.428;2023-12-22T07:52:54;22.30;;;21.50;;
3943;SDS011;1986;52.546;13.428;2023-12-22T07:55:21;23.27;;;22.47;;
3943;SDS011;1986;52.546;13.428;2023-12-22T07:57:55;21.03;;;20.43;;
3943;SDS011;1986;52.546;13.428;2023-12-22T08:00:22;18.60;;;18.10;;
3943;SDS011;1986;52.546;13.428;2023-12-22T08:02:49;17.00;;;16.60;;
3943;SDS011;1986;52.546;13.428;2023-12-22T08:05:19;16.50;;;16.20;;
3943;SDS011;1986;52.546;13.428;2023-12-22T08:07:46;15.60;;;15.30;;
3943;SDS011;1986;52.546;13.428;2023-12-22T08:10:13;14.70;;;14.50;;
3943;SDS011;1986;52.546;13.428;2023-12-22T08:12:42;14.00;;;13.80;;
3943;SDS011;1986;52.546;13.428;2023-12-22T08:15:14;13.13;;;12.93;;
3943;SDS011;1986;52.546;13.428;2023-12-22T08:17:51;10.90;;;10.80;;
3943;SDS011;1986;52.546;13.428;2023-12-22T08:20:27;10.87;;;10.77;;
3943;SDS011;1986;52.546;13.428;2023-12-22T08:22:54;9.73;;;9.63;;
3943;SDS011;1986;52.546;13.428;2023-12-22T08:25:21;8.90;;;8.80;;
3943;SDS011;1986;52.546;13.428;2023-12-22T08:27:48;8.30;;;8.20;;
3943;SDS011;1986;52.546;13.428;2023-12-22T08:30:17;8.07;;;8.07;;
3943;SDS011;1986;52.546;13.428;2023-12-22T08:32:43;8.47;;;8.37;;
3943;SDS011;1986;52.546;13.428;2023-12-22T08:35:11;8.70;;;8.60;;
3943;SDS011;1986;52.546;13.428;2023-12-22T08:37:39;9.57;;;9.47;;
3943;SDS011;1986;52.546;13.428;2023-12-22T08:40:06;9.90;;;9.80;;
3943;SDS011;1986;52.546;13.428;2023-12-22T08:42:37;10.30;;;10.20;;
3943;SDS011;1986;52.546;13.428;2023-12-22T08:45:06;10.70;;;10.60;;
3943;SDS011;1986;52.546;13.428;2023-12-22T08:47:33;10.43;;;10.33;;
3943;SDS011;1986;52.546;13.428;2023-12-22T08:50:04;10.77;;;10.67;;
3943;SDS011;1986;52.546;13.428;2023-12-22T08:52:33;10.60;;;10.50;;
3943;SDS011;1986;52.546;13.428;2023-12-22T08:55:01;10.60;;;10.50;;
3943;SDS011;1986;52.546;13.428;2023-12-22T08:57:30;10.30;;;10.20;;
3943;SDS011;1986;52.546;13.428;2023-12-22T08:59:57;10.63;;;10.53;;
3943;SDS011;1986;52.546;13.428;2023-12-22T09:02:24;10.73;;;10.63;;
3943;SDS011;1986;52.546;13.428;2023-12-22T09:04:52;10.20;;;10.10;;
3943;SDS011;1986;52.546;13.428;2023-12-22T09:07:21;10.20;;;10.10;;
3943;SDS011;1986;52.546;13.428;2023-12-22T09:09:49;10.50;;;10.40;;
3943;SDS011;1986;52.546;13.428;2023-12-22T09:12:18;10.20;;;10.10;;
3943;SDS011;1986;52.546;13.428;2023-12-22T09:14:45;10.50;;;10.40;;
3943;SDS011;1986;52.546;13.428;2023-12-22T09:17:12;10.77;;;10.67;;
3943;SDS011;1986;52.546;13.428;2023-12-22T09:19:39;10.73;;;10.63;;
3943;SDS011;1986;52.546;13.428;2023-12-22T09:22:07;10.77;;;10.67;;
3943;SDS011;1986;52.546;13.428;2023-12-22T09:24:34;10.70;;;10.60;;
3943;SDS011;1986;52.546;13.428;2023-12-22T09:27:02;10.60;;;10.50;;
3943;SDS011;1986;52.546;13.428;2023-12-22T09:29:31;11.23;;;11.13;;
3943;SDS011;1986;52.546;13.428;2023-12-22T09:31:59;11.23;;;11.13;;
3943;SDS011;1986;52.546;13.428;2023-12-22T09:34:26;11.23;;;11.13;;
3943;SDS011;1986;52.546;13.428;2023-12-22T09:36:54;11.70;;;11.50;;
3943;SDS011;1986;52.546;13.428;2023-12-22T09:39:21;11.43;;;11.33;;
3943;SDS011;1986;52.546;13.428;2023-12-22T09:41:49;11.90;;;11.70;;
3943;SDS011;1986;52.546;13.428;2023-12-22T09:44:17;12.40;;;12.20;;
3943;SDS011;1986;52.546;13.428;2023-12-22T09:46:47;12.43;;;12.23;;
3943;SDS011;1986;52.546;13.428;2023-12-22T09:49:15;12.70;;;12.40;;
3943;SDS011;1986;52.546;13.428;2023-12-22T09:51:44;12.50;;;12.30;;
3943;SDS011;1986;52.546;13.428;2023-12-22T09:54:11;12.80;;;12.50;;
3943;SDS011;1986;52.546;13.428;2023-12-22T09:56:40;12.60;;;12.40;;
3943;SDS011;1986;52.546;13.428;2023-12-22T09:59:09;12.43;;;12.23;;
3943;SDS011;1986;52.546;13.428;2023-12-22T10:01:38;11.90;;;11.70;;
3943;SDS011;1986;52.546;13.428;2023-12-22T10:04:10;12.10;;;11.90;;
3943;SDS011;1986;52.546;13.428;2023-12-22T10:06:38;12.20;;;12.00;;
3943;SDS011;1986;52.546;13.428;2023-12-22T10:09:05;12.20;;;12.00;;
3943;SDS011;1986;52.546;13.428;2023-12-22T10:11:33;12.30;;;12.10;;
3943;SDS011;1986;52.546;13.428;2023-12-22T10:14:02;12.20;;;12.00;;
3943;SDS011;1986;52.546;13.428;2023-12-22T10:16:33;12.03;;;11.83;;
3943;SDS011;1986;52.546;13.428;2023-12-22T10:19:02;12.40;;;12.20;;
3943;SDS011;1986;52.546;13.428;2023-12-22T10:21:31;12.30;;;12.10;;
3943;SDS011;1986;52.546;13.428;2023-12-22T10:23:58;12.87;;;12.67;;
3943;SDS011;1986;52.546;13.428;2023-12-22T10:26:25;12.50;;;12.30;;
3943;SDS011;1986;52.546;13.428;2023-12-22T10:28:52;12.60;;;12.40;;
3943;SDS011;1986;52.546;13.428;2023-12-22T10:31:19;12.93;;;12.73;;
3943;SDS011;1986;52.546;13.428;2023-12-22T10:33:46;13.10;;;12.90;;
3943;SDS011;1986;52.546;13.428;2023-12-22T10:36:16;13.47;;;13.20;;
3943;SDS011;1986;52.546;13.428;2023-12-22T10:38:44;13.37;;;13.07;;
3943;SDS011;1986;52.546;13.428;2023-12-22T10:41:11;13.50;;;13.20;;
3943;SDS011;1986;52.546;13.428;2023-12-22T10:43:39;13.87;;;13.57;;
3943;SDS011;1986;52.546;13.428;2023-12-22T10:46:07;13.60;;;13.30;;
3943;SDS011;1986;52.546;13.428;2023-12-22T10:48:36;14.60;;;14.20;;
3943;SDS011;1986;52.546;13.428;2023-12-22T10:51:03;14.40;;;14.00;;
3943;SDS011;1986;52.546;13.428;2023-12-22T10:53:40;13.60;;;13.30;;
3943;SDS011;1986;52.546;13.428;2023-12-22T10:56:09;13.10;;;12.80;;
3943;SDS011;1986;52.546;13.428;2023-12-22T10:58:37;13.50;;;13.20;;
3943;SDS011;1986;52.546;13.428;2023-12-22T11:01:05;13.23;;;12.93;;
3943;SDS011;1986;52.546;13.428;2023-12-22T11:03:38;13.60;;;13.30;;
3943;SDS011;1986;52.546;13.428;2023-12-22T11:06:06;13.43;;;13.13;;
3943;SDS011;1986;52.546;13.428;2023-12-22T11:08:38;13.80;;;13.50;;
3943;SDS011;1986;52.546;13.428;2023-12-22T11:11:08;13.80;;;13.50;;
3943;SDS011;1986;52.546;13.428;2023-12-22T11:13:40;13.60;;;13.30;;
3943;SDS011;1986;52.546;13.428;2023-12-22T11:16:09;13.90;;;13.60;;
3943;SDS011;1986;52.546;13.428;2023-12-22T11:18:38;14.00;;;13.70;;
3943;SDS011;1986;52.546;13.428;2023-12-22T11:21:05;14.30;;;13.90;;
3943;SDS011;1986;52.546;13.428;2023-12-22T11:23:34;14.90;;;14.50;;
3943;SDS011;1986;52.546;13.428;2023-12-22T11:26:03;14.50;;;14.10;;
3943;SDS011;1986;52.546;13.428;2023-12-22T11:28:40;14.70;;;14.30;;
3943;SDS011;1986;52.546;13.428;2023-12-22T11:31:12;15.27;;;14.77;;
3943;SDS011;1986;52.546;13.428;2023-12-22T11:33:40;14.23;;;13.93;;
3943;SDS011;1986;52.546;13.428;2023-12-22T11:36:11;14.57;;;14.27;;
3943;SDS011;1986;52.546;13.428;2023-12-22T11:38:40;15.27;;;14.87;;
3943;SDS011;1986;52.546;13.428;2023-12-22T11:41:09;15.40;;;15.00;;
3943;SDS011;1986;52.546;13.428;2023-12-22T11:43:38;15.00;;;14.60;;
3943;SDS011;1986;52.546;13.428;2023-12-22T11:46:09;15.40;;;14.90;;
3943;SDS011;1986;52.546;13.428;2023-12-22T11:48:37;15.60;;;15.10;;
3943;SDS011;1986;52.546;13.428;2023-12-22T11:51:11;15.60;;;15.10;;
3943;SDS011;1986;52.546;13.428;2023-12-22T11:53:40;14.90;;;14.50;;
3943;SDS011;1986;52.546;13.428;2023-12-22T11:56:07;15.33;;;14.87;;
3943;SDS011;1986;52.546;13.428;2023-12-22T11:58:38;15.50;;;15.00;;
3943;SDS011;1986;52.546;13.428;2023-12-22T12:01:07;15.17;;;14.77;;
3943;SDS011;1986;52.546;13.428;2023-12-22T12:03:36;14.93;;;14.53;;
3943;SDS011;1986;52.546;13.428;2023-12-22T12:08:59;16.00;;;15.50;;
3943;SDS011;1986;52.546;13.428;2023-12-22T12:14:43;15.90;;;15.40;;
3943;SDS011;1986;52.546;13.428;2023-12-22T12:17:12;15.70;;;15.20;;
3943;SDS011;1986;52.546;13.428;2023-12-22T12:19:44;15.50;;;15.00;;
3943;SDS011;1986;52.546;13.428;2023-12-22T12:22:14;15.17;;;14.77;;
3943;SDS011;1986;52.546;13.428;2023-12-22T12:24:41;15.30;;;14.80;;
3943;SDS011;1986;52.546;13.428;2023-12-22T12:27:08;14.73;;;14.33;;
3943;SDS011;1986;52.546;13.428;2023-12-22T12:29:43;15.07;;;14.67;;
3943;SDS011;1986;52.546;13.428;2023-12-22T12:32:10;15.47;;;14.97;;
3943;SDS011;1986;52.546;13.428;2023-12-22T12:34:42;15.00;;;14.60;;
3943;SDS011;1986;52.546;13.428;2023-12-22T12:37:12;15.17;;;14.77;;
3943;SDS011;1986;52.546;13.428;2023-12-22T12:39:40;15.60;;;15.10;;
3943;SDS011;1986;52.546;13.428;2023-12-22T12:42:10;15.27;;;14.87;;
3943;SDS011;1986;52.546;13.428;2023-12-22T12:44:42;15.60;;;15.10;;
3943;SDS011;1986;52.546;13.428;2023-12-22T12:47:13;15.20;;;14.80;;
3943;SDS011;1986;52.546;13.428;2023-12-22T12:49:42;15.50;;;15.10;;
3943;SDS011;1986;52.546;13.428;2023-12-22T12:52:12;16.27;;;15.80;;
3943;SDS011;1986;52.546;13.428;2023-12-22T12:54:40;14.30;;;13.90;;
3943;SDS011;1986;52.546;13.428;2023-12-22T12:57:13;14.60;;;14.20;;
3943;SDS011;1986;52.546;13.428;2023-12-22T12:59:44;14.97;;;14.57;;
3943;SDS011;1986;52.546;13.428;2023-12-22T13:02:12;15.30;;;14.80;;
3943;SDS011;1986;52.546;13.428;2023-12-22T13:04:40;14.73;;;14.33;;
3943;SDS011;1986;52.546;13.428;2023-12-22T13:07:08;14.90;;;14.50;;
3943;SDS011;1986;52.546;13.428;2023-12-22T13:09:39;14.80;;;14.40;;
3943;SDS011;1986;52.546;13.428;2023-12-22T13:12:08;15.50;;;15.00;;
3943;SDS011;1986;52.546;13.428;2023-12-22T13:14:36;15.50;;;15.00;;
3943;SDS011;1986;52.546;13.428;2023-12-22T13:17:03;15.53;;;15.03;;
3943;SDS011;1986;52.546;13.428;2023-12-22T13:19:31;15.00;;;14.60;;
3943;SDS011;1986;52.546;13.428;2023-12-22T13:22:01;16.90;;;16.40;;
3943;SDS011;1986;52.546;13.428;2023-12-22T13:24:33;14.60;;;14.20;;
3943;SDS011;1986;52.546;13.428;2023-12-22T13:27:00;15.37;;;14.87;;
3943;SDS011;1986;52.546;13.428;2023-12-22T13:29:28;15.30;;;14.80;;
3943;SDS011;1986;52.546;13.428;2023-12-22T13:31:56;15.03;;;14.63;;
3943;SDS011;1986;52.546;13.428;2023-12-22T13:34:24;14.73;;;14.33;;
3943;SDS011;1986;52.546;13.428;2023-12-22T13:36:52;14.90;;;14.50;;
3943;SDS011;1986;52.546;13.428;2023-12-22T13:39:25;14.90;;;14.50;;
3943;SDS011;1986;52.546;13.428;2023-12-22T13:41:55;15.67;;;15.17;;
3943;SDS011;1986;52.546;13.428;2023-12-22T13:44:22;15.47;;;15.00;;
3943;SDS011;1986;52.546;13.428;2023-12-22T13:46:49;15.60;;;15.10;;
3943;SDS011;1986;52.546;13.428;2023-12-22T13:49:18;15.70;;;15.20;;
3943;SDS011;1986;52.546;13.428;2023-12-22T13:51:45;15.27;;;14.83;;
3943;SDS011;1986;52.546;13.428;2023-12-22T13:54:13;15.57;;;15.07;;
3943;SDS011;1986;52.546;13.428;2023-12-22T13:56:45;15.40;;;15.00;;
3943;SDS011;1986;52.546;13.428;2023-12-22T13:59:14;15.30;;;14.90;;
3943;SDS011;1986;52.546;13.428;2023-12-22T14:01:41;15.30;;;14.90;;
3943;SDS011;1986;52.546;13.428;2023-12-22T14:04:11;15.10;;;14.70;;
3943;SDS011;1986;52.546;13.428;2023-12-22T14:06:38;14.60;;;14.20;;
3943;SDS011;1986;52.546;13.428;2023-12-22T14:09:06;15.10;;;14.70;;
3943;SDS011;1986;52.546;13.428;2023-12-22T14:11:33;15.20;;;14.80;;
3943;SDS011;1986;52.546;13.428;2023-12-22T14:14:02;15.30;;;14.90;;
3943;SDS011;1986;52.546;13.428;2023-12-22T14:16:32;15.50;;;15.10;;
3943;SDS011;1986;52.546;13.428;2023-12-22T14:19:00;15.30;;;14.90;;
3943;SDS011;1986;52.546;13.428;2023-12-22T14:21:27;14.90;;;14.50;;
3943;SDS011;1986;52.546;13.428;2023-12-22T14:23:55;15.10;;;14.70;;
3943;SDS011;1986;52.546;13.428;2023-12-22T14:26:22;14.70;;;14.30;;
3943;SDS011;1986;52.546;13.428;2023-12-22T14:28:50;14.63;;;14.23;;
3943;SDS011;1986;52.546;13.428;2023-12-22T14:31:19;14.50;;;14.20;;
3943;SDS011;1986;52.546;13.428;2023-12-22T14:33:47;14.13;;;13.83;;
3943;SDS011;1986;52.546;13.428;2023-12-22T14:36:14;13.90;;;13.60;;
3943;SDS011;1986;52.546;13.428;2023-12-22T14:38:42;14.10;;;13.80;;
3943;SDS011;1986;52.546;13.428;2023-12-22T14:41:09;13.60;;;13.30;;
3943;SDS011;1986;52.546;13.428;2023-12-22T14:43:37;13.27;;;13.00;;
3943;SDS011;1986;52.546;13.428;2023-12-22T14:46:04;13.80;;;13.50;;
3943;SDS011;1986;52.546;13.428;2023-12-22T14:48:34;13.77;;;13.47;;
3943;SDS011;1986;52.546;13.428;2023-12-22T14:51:01;13.13;;;12.90;;
3943;SDS011;1986;52.546;13.428;2023-12-22T14:53:28;13.27;;;12.97;;